createdAt,value
2018-07-08T00:00:04.662Z,0.00
2018-07-08T00:01:04.607Z,0.00
2018-07-08T00:02:04.629Z,0.00
2018-07-08T00:03:04.692Z,0.00
2018-07-08T00:04:04.589Z,0.00
2018-07-08T00:05:04.562Z,0.00
2018-07-08T00:06:04.533Z,0.00
2018-07-08T00:07:04.564Z,0.00
2018-07-08T00:08:04.470Z,0.00
2018-07-08T00:09:06.046Z,0.00
2018-07-08T00:10:04.417Z,0.00
2018-07-08T00:11:04.427Z,0.00
2018-07-08T00:12:04.355Z,0.00
2018-07-08T00:14:04.378Z,0.00
2018-07-08T00:15:04.385Z,0.00
2018-07-08T00:16:06.031Z,0.00
2018-07-08T00:17:04.196Z,0.00
2018-07-08T00:18:04.182Z,0.00
2018-07-08T00:19:05.267Z,0.00
2018-07-08T00:20:06.176Z,0.00
2018-07-08T00:21:04.166Z,0.00
2018-07-08T00:22:04.160Z,0.00
2018-07-08T00:23:04.152Z,0.00
2018-07-08T00:25:04.111Z,0.00
2018-07-08T00:26:05.572Z,0.00
2018-07-08T00:27:04.041Z,0.00
2018-07-08T00:28:03.932Z,0.00
2018-07-08T00:29:05.550Z,0.00
2018-07-08T00:30:03.936Z,0.00
2018-07-08T00:32:03.877Z,0.00
2018-07-08T00:33:03.802Z,0.00
2018-07-08T00:34:03.909Z,0.00
2018-07-08T00:35:03.806Z,0.00
2018-07-08T00:37:03.744Z,0.00
2018-07-08T00:38:03.817Z,0.00
2018-07-08T00:39:03.692Z,0.00
2018-07-08T00:41:03.640Z,0.00
2018-07-08T00:42:04.660Z,0.00
2018-07-08T00:43:03.605Z,0.00
2018-07-08T00:44:03.625Z,0.00
2018-07-08T00:45:03.588Z,0.00
2018-07-08T00:46:05.021Z,0.00
2018-07-08T00:47:03.442Z,0.00
2018-07-08T00:48:03.422Z,0.00
2018-07-08T00:50:03.380Z,0.00
2018-07-08T00:51:03.373Z,0.00
2018-07-08T00:52:05.077Z,0.00
2018-07-08T00:53:03.392Z,0.00
2018-07-08T00:54:03.312Z,0.00
2018-07-08T00:55:03.349Z,0.00
2018-07-08T00:56:03.224Z,0.00
2018-07-08T00:57:04.160Z,0.00
2018-07-08T00:58:03.256Z,0.00
2018-07-08T01:00:03.127Z,0.00
2018-07-08T01:01:03.197Z,0.00
2018-07-08T01:02:03.245Z,0.00
2018-07-08T01:03:03.146Z,0.00
2018-07-08T01:04:03.110Z,0.00
2018-07-08T01:05:02.991Z,0.00
2018-07-08T01:06:06.562Z,0.00
2018-07-08T01:07:02.911Z,0.00
2018-07-08T01:08:03.031Z,0.00
2018-07-08T01:09:02.866Z,0.00
2018-07-08T01:10:02.984Z,0.00
2018-07-08T01:11:02.872Z,0.00
2018-07-08T01:12:02.906Z,0.00
2018-07-08T01:13:04.706Z,0.00
2018-07-08T01:14:02.734Z,0.00
2018-07-08T01:15:02.845Z,0.00
2018-07-08T01:16:02.767Z,0.00
2018-07-08T01:17:02.678Z,0.00
2018-07-08T01:18:02.774Z,0.00
2018-07-08T01:19:06.603Z,0.00
2018-07-08T01:20:02.575Z,0.00
2018-07-08T01:21:02.667Z,0.00
2018-07-08T01:22:04.055Z,0.00
2018-07-08T01:23:02.546Z,0.00
2018-07-08T01:24:02.462Z,0.00
2018-07-08T01:25:02.538Z,0.00
2018-07-08T01:26:02.451Z,0.00
2018-07-08T01:27:02.432Z,0.00
2018-07-08T01:28:02.354Z,0.00
2018-07-08T01:29:02.359Z,0.00
2018-07-08T01:30:04.162Z,0.00
2018-07-08T01:31:02.260Z,0.00
2018-07-08T01:33:02.257Z,0.00
2018-07-08T01:34:02.230Z,0.00
2018-07-08T01:35:02.207Z,0.00
2018-07-08T01:36:02.178Z,0.00
2018-07-08T01:38:02.159Z,0.00
2018-07-08T01:39:02.104Z,0.00
2018-07-08T01:40:04.066Z,0.00
2018-07-08T01:41:02.684Z,0.00
2018-07-08T01:43:03.569Z,0.00
2018-07-08T01:44:01.998Z,0.00
2018-07-08T01:45:01.936Z,0.00
2018-07-08T01:46:01.945Z,0.00
2018-07-08T01:47:01.870Z,0.00
2018-07-08T01:48:01.975Z,0.00
2018-07-08T01:49:01.871Z,0.00
2018-07-08T01:50:01.867Z,0.00
2018-07-08T01:51:01.812Z,0.00
2018-07-08T01:52:01.706Z,0.00
2018-07-08T01:53:01.774Z,0.00
2018-07-08T01:54:01.663Z,0.00
2018-07-08T01:55:01.694Z,0.00
2018-07-08T01:56:01.742Z,0.00
2018-07-08T01:57:03.603Z,0.00
2018-07-08T01:58:01.597Z,0.00
2018-07-08T01:59:01.649Z,0.00
2018-07-08T02:00:01.681Z,0.00
2018-07-08T02:01:01.650Z,0.00
2018-07-08T02:02:03.121Z,0.00
2018-07-08T02:03:03.057Z,0.00
2018-07-08T02:04:01.440Z,0.00
2018-07-08T02:05:01.442Z,0.00
2018-07-08T02:06:01.409Z,0.00
2018-07-08T02:07:01.424Z,0.00
2018-07-08T02:08:01.397Z,0.00
2018-07-08T02:09:01.353Z,0.00
2018-07-08T02:11:01.248Z,0.00
2018-07-08T02:12:01.200Z,0.00
2018-07-08T02:13:01.174Z,0.00
2018-07-08T02:14:01.235Z,0.00
2018-07-08T02:15:01.120Z,0.00
2018-07-08T02:16:01.161Z,0.00
2018-07-08T02:17:01.102Z,0.00
2018-07-08T02:18:01.093Z,0.00
2018-07-08T02:19:01.011Z,0.00
2018-07-08T02:20:01.025Z,0.00
2018-07-08T02:21:00.991Z,0.00
2018-07-08T02:22:01.004Z,0.00
2018-07-08T02:23:00.961Z,0.00
2018-07-08T02:24:00.885Z,0.00
2018-07-08T02:26:00.889Z,0.00
2018-07-08T02:28:00.790Z,0.00
2018-07-08T02:29:00.807Z,0.00
2018-07-08T02:31:00.703Z,0.00
2018-07-08T02:32:00.705Z,0.00
2018-07-08T02:33:00.635Z,0.00
2018-07-08T02:34:00.659Z,0.00
2018-07-08T02:35:00.636Z,0.00
2018-07-08T02:36:00.606Z,0.00
2018-07-08T02:37:00.570Z,0.00
2018-07-08T02:38:00.546Z,0.00
2018-07-08T02:39:00.560Z,0.00
2018-07-08T02:40:00.477Z,0.00
2018-07-08T02:41:00.426Z,0.00
2018-07-08T02:42:00.439Z,0.00
2018-07-08T02:43:00.556Z,0.00
2018-07-08T02:44:00.503Z,0.00
2018-07-08T02:45:00.385Z,0.00
2018-07-08T02:47:00.353Z,5.63
2018-07-08T02:48:00.313Z,5.63
2018-07-08T02:49:00.262Z,0.00
2018-07-08T02:50:00.246Z,0.00
2018-07-08T02:51:00.191Z,5.63
2018-07-08T02:52:00.188Z,5.63
2018-07-08T02:53:00.207Z,5.63
2018-07-08T02:54:00.140Z,5.63
2018-07-08T02:55:00.121Z,5.63
2018-07-08T02:56:00.066Z,5.63
2018-07-08T02:57:00.031Z,5.63
2018-07-08T02:58:00.040Z,5.63
2018-07-08T02:58:59.967Z,5.63
2018-07-08T03:00:00.007Z,5.63
2018-07-08T03:00:59.944Z,5.63
2018-07-08T03:01:59.906Z,11.25
2018-07-08T03:02:59.969Z,11.25
2018-07-08T03:03:59.885Z,11.25
2018-07-08T03:04:59.865Z,11.25
2018-07-08T03:05:59.820Z,11.25
2018-07-08T03:06:59.757Z,11.25
2018-07-08T03:07:59.797Z,11.25
2018-07-08T03:08:59.832Z,11.25
2018-07-08T03:09:59.689Z,11.25
2018-07-08T03:11:59.721Z,11.25
2018-07-08T03:12:59.638Z,11.25
2018-07-08T03:13:59.612Z,16.88
2018-07-08T03:14:59.638Z,16.88
2018-07-08T03:16:59.615Z,16.88
2018-07-08T03:17:59.484Z,22.50
2018-07-08T03:18:59.462Z,22.50
2018-07-08T03:19:59.443Z,28.13
2018-07-08T03:20:59.439Z,28.13
2018-07-08T03:21:59.401Z,28.13
2018-07-08T03:22:59.385Z,28.13
2018-07-08T03:23:59.362Z,28.13
2018-07-08T03:24:59.303Z,28.13
2018-07-08T03:25:59.267Z,22.50
2018-07-08T03:26:59.242Z,28.13
2018-07-08T03:29:59.237Z,28.13
2018-07-08T03:30:59.206Z,28.13
2018-07-08T03:31:59.146Z,28.13
2018-07-08T03:32:59.158Z,28.13
2018-07-08T03:33:59.039Z,28.13
2018-07-08T03:34:59.109Z,33.75
2018-07-08T03:35:59.005Z,33.75
2018-07-08T03:36:58.992Z,28.13
2018-07-08T03:37:58.973Z,33.75
2018-07-08T03:38:58.954Z,28.13
2018-07-08T03:39:58.905Z,28.13
2018-07-08T03:40:58.975Z,33.75
2018-07-08T03:41:58.843Z,33.75
2018-07-08T03:42:58.881Z,33.75
2018-07-08T03:43:58.877Z,33.75
2018-07-08T03:44:58.799Z,33.75
2018-07-08T03:46:58.803Z,39.38
2018-07-08T03:47:58.742Z,39.38
2018-07-08T03:48:58.785Z,39.38
2018-07-08T03:49:58.707Z,39.38
2018-07-08T03:50:58.623Z,39.38
2018-07-08T03:51:58.690Z,45.00
2018-07-08T03:52:58.730Z,45.00
2018-07-08T03:53:58.562Z,45.00
2018-07-08T03:54:58.608Z,45.00
2018-07-08T03:55:58.494Z,45.00
2018-07-08T03:56:58.467Z,45.00
2018-07-08T03:57:58.458Z,45.00
2018-07-08T03:58:58.423Z,45.00
2018-07-08T03:59:58.465Z,45.00
2018-07-08T04:00:58.373Z,45.00
2018-07-08T04:01:58.339Z,45.00
2018-07-08T04:02:58.326Z,45.00
2018-07-08T04:03:58.296Z,50.63
2018-07-08T04:04:58.261Z,50.63
2018-07-08T04:05:58.240Z,50.63
2018-07-08T04:06:58.205Z,50.63
2018-07-08T04:07:58.182Z,50.63
2018-07-08T04:08:58.196Z,50.63
2018-07-08T04:09:58.174Z,50.63
2018-07-08T04:10:58.092Z,50.63
2018-07-08T04:11:58.078Z,56.25
2018-07-08T04:12:58.104Z,56.25
2018-07-08T04:13:58.084Z,56.25
2018-07-08T04:14:58.035Z,56.25
2018-07-08T04:15:57.990Z,61.88
2018-07-08T04:16:57.963Z,67.50
2018-07-08T04:17:57.942Z,67.50
2018-07-08T04:18:57.934Z,73.13
2018-07-08T04:19:57.908Z,78.75
2018-07-08T04:20:57.844Z,73.13
2018-07-08T04:21:57.869Z,78.75
2018-07-08T04:22:57.805Z,78.75
2018-07-08T04:23:57.769Z,84.38
2018-07-08T04:24:57.781Z,84.38
2018-07-08T04:25:57.721Z,84.38
2018-07-08T04:26:57.701Z,84.38
2018-07-08T04:27:57.681Z,84.38
2018-07-08T04:28:57.719Z,78.75
2018-07-08T04:29:57.619Z,73.13
2018-07-08T04:30:59.530Z,73.13
2018-07-08T04:31:57.572Z,73.13
2018-07-08T04:32:57.569Z,78.75
2018-07-08T04:33:57.538Z,78.75
2018-07-08T04:34:57.554Z,78.75
2018-07-08T04:35:57.464Z,78.75
2018-07-08T04:36:57.473Z,73.13
2018-07-08T04:37:57.416Z,67.50
2018-07-08T04:38:57.388Z,67.50
2018-07-08T04:39:57.390Z,67.50
2018-07-08T04:40:57.374Z,61.88
2018-07-08T04:41:57.330Z,61.88
2018-07-08T04:42:57.300Z,61.88
2018-07-08T04:43:57.288Z,61.88
2018-07-08T04:44:57.240Z,61.88
2018-07-08T04:45:57.215Z,67.50
2018-07-08T04:46:57.197Z,67.50
2018-07-08T04:47:57.195Z,73.13
2018-07-08T04:48:57.154Z,78.75
2018-07-08T04:49:57.117Z,84.38
2018-07-08T04:50:57.109Z,95.63
2018-07-08T04:51:57.109Z,106.88
2018-07-08T04:52:57.057Z,112.50
2018-07-08T04:53:57.016Z,118.13
2018-07-08T04:54:57.061Z,112.50
2018-07-08T04:55:57.027Z,112.50
2018-07-08T04:56:57.131Z,112.50
2018-07-08T04:57:56.973Z,118.13
2018-07-08T04:58:56.950Z,118.13
2018-07-08T04:59:57.031Z,118.13
2018-07-08T05:01:04.558Z,118.13
2018-07-08T05:02:50.481Z,112.50
2018-07-08T05:03:50.439Z,112.50
2018-07-08T05:05:46.546Z,118.13
2018-07-08T05:06:47.320Z,129.38
2018-07-08T05:08:39.636Z,129.38
2018-07-08T05:09:39.602Z,123.75
2018-07-08T05:10:39.564Z,118.13
2018-07-08T05:11:39.535Z,118.13
2018-07-08T05:12:39.503Z,118.13
2018-07-08T05:13:39.473Z,123.75
2018-07-08T05:14:39.454Z,129.38
2018-07-08T05:15:39.430Z,129.38
2018-07-08T05:16:39.412Z,129.38
2018-07-08T05:17:39.409Z,129.38
2018-07-08T05:18:39.381Z,140.63
2018-07-08T05:19:39.332Z,163.13
2018-07-08T05:20:39.303Z,185.63
2018-07-08T05:21:39.309Z,185.63
2018-07-08T05:22:39.266Z,180.00
2018-07-08T05:23:39.238Z,174.38
2018-07-08T05:24:39.232Z,168.75
2018-07-08T05:25:39.178Z,163.13
2018-07-08T05:26:39.165Z,157.50
2018-07-08T05:27:39.140Z,146.25
2018-07-08T05:28:39.104Z,146.25
2018-07-08T05:29:39.104Z,140.63
2018-07-08T05:30:39.053Z,140.63
2018-07-08T05:31:39.056Z,140.63
2018-07-08T05:32:39.011Z,135.00
2018-07-08T05:33:40.926Z,135.00
2018-07-08T05:34:38.978Z,135.00
2018-07-08T05:35:38.956Z,135.00
2018-07-08T05:36:38.938Z,140.63
2018-07-08T05:37:38.923Z,140.63
2018-07-08T05:38:38.864Z,146.25
2018-07-08T05:39:38.854Z,157.50
2018-07-08T05:40:40.408Z,163.13
2018-07-08T05:41:38.806Z,157.50
2018-07-08T05:42:38.769Z,151.88
2018-07-08T05:43:38.749Z,157.50
2018-07-08T05:44:38.774Z,168.75
2018-07-08T05:45:38.716Z,191.25
2018-07-08T05:46:38.685Z,196.88
2018-07-08T05:47:38.654Z,196.88
2018-07-08T05:48:38.649Z,202.50
2018-07-08T05:49:38.617Z,208.13
2018-07-08T05:50:38.673Z,191.25
2018-07-08T05:51:38.561Z,191.25
2018-07-08T05:52:38.551Z,196.88
2018-07-08T05:53:38.507Z,208.13
2018-07-08T05:54:40.420Z,219.38
2018-07-08T05:55:38.477Z,225.00
2018-07-08T05:56:38.437Z,185.63
2018-07-08T05:57:38.414Z,174.38
2018-07-08T05:58:38.398Z,151.88
2018-07-08T05:59:38.362Z,135.00
2018-07-08T06:00:38.340Z,129.38
2018-07-08T06:01:38.316Z,129.38
2018-07-08T06:02:38.308Z,135.00
2018-07-08T06:03:38.262Z,140.63
2018-07-08T06:04:38.298Z,151.88
2018-07-08T06:05:38.220Z,174.38
2018-07-08T06:06:38.228Z,168.75
2018-07-08T06:07:38.184Z,185.63
2018-07-08T06:08:38.151Z,196.88
2018-07-08T06:09:38.123Z,196.88
2018-07-08T06:10:38.103Z,196.88
2018-07-08T06:11:38.083Z,202.50
2018-07-08T06:12:38.053Z,208.13
2018-07-08T06:13:38.025Z,208.13
2018-07-08T06:14:38.013Z,208.13
2018-07-08T06:15:37.978Z,230.63
2018-07-08T06:16:37.954Z,241.88
2018-07-08T06:17:37.946Z,253.13
2018-07-08T06:18:37.909Z,253.13
2018-07-08T06:19:37.923Z,253.13
2018-07-08T06:20:37.869Z,236.25
2018-07-08T06:21:37.839Z,236.25
2018-07-08T06:22:39.421Z,230.63
2018-07-08T06:23:37.794Z,230.63
2018-07-08T06:24:37.766Z,230.63
2018-07-08T06:25:39.445Z,236.25
2018-07-08T06:26:37.723Z,230.63
2018-07-08T06:27:37.701Z,219.38
2018-07-08T06:28:37.670Z,208.13
2018-07-08T06:29:37.663Z,202.50
2018-07-08T06:30:37.687Z,219.38
2018-07-08T06:31:37.604Z,236.25
2018-07-08T06:32:37.578Z,270.00
2018-07-08T06:33:37.599Z,292.50
2018-07-08T06:34:37.556Z,286.88
2018-07-08T06:35:37.516Z,270.00
2018-07-08T06:36:37.487Z,253.13
2018-07-08T06:37:37.480Z,236.25
2018-07-08T06:38:37.463Z,219.38
2018-07-08T06:39:37.431Z,219.38
2018-07-08T06:40:37.428Z,230.63
2018-07-08T06:41:37.368Z,236.25
2018-07-08T06:42:37.351Z,236.25
2018-07-08T06:43:37.334Z,253.13
2018-07-08T06:44:37.317Z,230.63
2018-07-08T06:45:38.962Z,208.13
2018-07-08T06:46:37.343Z,174.38
2018-07-08T06:47:37.249Z,146.25
2018-07-08T06:48:37.215Z,140.63
2018-07-08T06:49:37.194Z,135.00
2018-07-08T06:50:37.181Z,135.00
2018-07-08T06:52:37.134Z,157.50
2018-07-08T06:53:37.152Z,180.00
2018-07-08T06:54:38.928Z,185.63
2018-07-08T06:55:37.100Z,196.88
2018-07-08T06:56:37.058Z,219.38
2018-07-08T06:57:37.013Z,225.00
2018-07-08T06:58:36.997Z,219.38
2018-07-08T06:59:36.998Z,230.63
2018-07-08T07:00:36.939Z,230.63
2018-07-08T07:01:36.945Z,230.63
2018-07-08T07:02:36.890Z,230.63
2018-07-08T07:03:36.880Z,230.63
2018-07-08T07:04:36.866Z,236.25
2018-07-08T07:05:36.833Z,236.25
2018-07-08T07:06:36.854Z,241.88
2018-07-08T07:07:36.788Z,247.50
2018-07-08T07:08:36.757Z,253.13
2018-07-08T07:09:36.736Z,264.38
2018-07-08T07:10:38.461Z,264.38
2018-07-08T07:11:36.691Z,270.00
2018-07-08T07:12:36.680Z,286.88
2018-07-08T07:13:36.646Z,298.13
2018-07-08T07:14:36.637Z,298.13
2018-07-08T07:15:36.591Z,303.75
2018-07-08T07:16:36.587Z,315.00
2018-07-08T07:17:36.554Z,320.63
2018-07-08T07:18:36.573Z,315.00
2018-07-08T07:19:36.504Z,315.00
2018-07-08T07:20:40.429Z,315.00
2018-07-08T07:21:36.460Z,331.88
2018-07-08T07:22:36.438Z,348.75
2018-07-08T07:23:36.417Z,360.00
2018-07-08T07:24:36.430Z,376.88
2018-07-08T07:25:36.367Z,365.63
2018-07-08T07:26:36.362Z,371.25
2018-07-08T07:27:36.335Z,365.63
2018-07-08T07:28:36.352Z,360.00
2018-07-08T07:29:37.929Z,354.38
2018-07-08T07:30:36.267Z,343.13
2018-07-08T07:31:36.269Z,320.63
2018-07-08T07:32:36.225Z,309.38
2018-07-08T07:33:36.196Z,298.13
2018-07-08T07:34:36.186Z,298.13
2018-07-08T07:35:36.160Z,292.50
2018-07-08T07:36:36.128Z,286.88
2018-07-08T07:37:36.130Z,286.88
2018-07-08T07:38:36.100Z,270.00
2018-07-08T07:39:36.077Z,258.75
2018-07-08T07:40:36.044Z,258.75
2018-07-08T07:41:36.031Z,258.75
2018-07-08T07:42:36.004Z,253.13
2018-07-08T07:43:37.965Z,247.50
2018-07-08T07:44:35.986Z,247.50
2018-07-08T07:45:35.943Z,247.50
2018-07-08T07:46:35.927Z,264.38
2018-07-08T07:47:35.895Z,270.00
2018-07-08T07:48:35.887Z,270.00
2018-07-08T07:49:37.448Z,264.38
2018-07-08T07:50:35.831Z,253.13
2018-07-08T07:51:35.819Z,236.25
2018-07-08T07:52:35.790Z,225.00
2018-07-08T07:53:35.780Z,225.00
2018-07-08T07:54:37.453Z,219.38
2018-07-08T07:55:37.455Z,225.00
2018-07-08T07:56:35.715Z,219.38
2018-07-08T07:57:35.716Z,230.63
2018-07-08T07:58:35.676Z,236.25
2018-07-08T07:59:35.632Z,230.63
2018-07-08T08:00:35.614Z,236.25
2018-07-08T08:01:35.586Z,241.88
2018-07-08T08:02:35.565Z,236.25
2018-07-08T08:03:35.543Z,230.63
2018-07-08T08:04:35.518Z,219.38
2018-07-08T08:05:35.497Z,213.75
2018-07-08T08:06:35.493Z,219.38
2018-07-08T08:07:35.462Z,225.00
2018-07-08T08:08:36.963Z,236.25
2018-07-08T08:09:35.425Z,236.25
2018-07-08T08:10:35.394Z,241.88
2018-07-08T08:11:35.365Z,253.13
2018-07-08T08:12:35.349Z,264.38
2018-07-08T08:13:35.316Z,292.50
2018-07-08T08:14:36.959Z,326.25
2018-07-08T08:15:35.311Z,337.50
2018-07-08T08:16:35.254Z,331.88
2018-07-08T08:17:35.270Z,331.88
2018-07-08T08:18:35.213Z,337.50
2018-07-08T08:19:35.182Z,343.13
2018-07-08T08:20:35.174Z,343.13
2018-07-08T08:21:35.156Z,343.13
2018-07-08T08:22:35.124Z,343.13
2018-07-08T08:23:35.120Z,354.38
2018-07-08T08:24:35.109Z,371.25
2018-07-08T08:25:36.957Z,388.13
2018-07-08T08:26:35.048Z,376.88
2018-07-08T08:27:35.025Z,388.13
2018-07-08T08:28:34.999Z,376.88
2018-07-08T08:29:34.976Z,360.00
2018-07-08T08:30:34.955Z,365.63
2018-07-08T08:31:34.938Z,376.88
2018-07-08T08:32:34.917Z,371.25
2018-07-08T08:34:34.879Z,382.50
2018-07-08T08:35:34.840Z,382.50
2018-07-08T08:36:34.838Z,382.50
2018-07-08T08:37:34.801Z,376.88
2018-07-08T08:38:34.793Z,382.50
2018-07-08T08:39:34.785Z,371.25
2018-07-08T08:40:34.746Z,388.13
2018-07-08T08:41:34.721Z,405.00
2018-07-08T08:42:34.698Z,427.50
2018-07-08T08:43:34.693Z,416.25
2018-07-08T08:44:34.654Z,405.00
2018-07-08T08:45:34.639Z,393.75
2018-07-08T08:46:34.610Z,393.75
2018-07-08T08:47:34.588Z,393.75
2018-07-08T08:48:34.589Z,399.38
2018-07-08T08:49:34.544Z,405.00
2018-07-08T08:50:34.536Z,399.38
2018-07-08T08:51:34.508Z,416.25
2018-07-08T08:52:34.603Z,399.38
2018-07-08T08:53:34.471Z,393.75
2018-07-08T08:54:34.445Z,371.25
2018-07-08T08:55:34.431Z,365.63
2018-07-08T08:56:34.402Z,360.00
2018-07-08T08:57:34.380Z,376.88
2018-07-08T08:58:34.360Z,393.75
2018-07-08T08:59:34.342Z,410.63
2018-07-08T09:00:34.318Z,410.63
2018-07-08T09:01:34.310Z,421.88
2018-07-08T09:02:34.296Z,416.25
2018-07-08T09:03:34.259Z,399.38
2018-07-08T09:04:34.236Z,393.75
2018-07-08T09:05:34.218Z,393.75
2018-07-08T09:06:35.950Z,382.50
2018-07-08T09:07:34.197Z,388.13
2018-07-08T09:08:34.162Z,388.13
2018-07-08T09:09:34.162Z,365.63
2018-07-08T09:10:34.145Z,376.88
2018-07-08T09:11:34.098Z,360.00
2018-07-08T09:12:34.104Z,354.38
2018-07-08T09:13:34.050Z,348.75
2018-07-08T09:14:34.040Z,360.00
2018-07-08T09:15:34.013Z,348.75
2018-07-08T09:16:34.014Z,348.75
2018-07-08T09:17:33.971Z,348.75
2018-07-08T09:18:33.964Z,371.25
2018-07-08T09:19:33.927Z,365.63
2018-07-08T09:20:33.926Z,382.50
2018-07-08T09:21:33.892Z,399.38
2018-07-08T09:22:33.875Z,438.75
2018-07-08T09:23:33.855Z,466.88
2018-07-08T09:24:33.831Z,461.25
2018-07-08T09:25:33.816Z,495.00
2018-07-08T09:26:33.792Z,500.63
2018-07-08T09:27:33.786Z,495.00
2018-07-08T09:28:33.756Z,483.75
2018-07-08T09:29:33.735Z,466.88
2018-07-08T09:30:33.706Z,461.25
2018-07-08T09:31:33.687Z,455.63
2018-07-08T09:32:33.664Z,455.63
2018-07-08T09:33:33.655Z,466.88
2018-07-08T09:34:33.632Z,472.50
2018-07-08T09:35:33.611Z,455.63
2018-07-08T09:36:33.586Z,466.88
2018-07-08T09:37:33.566Z,495.00
2018-07-08T09:38:33.565Z,489.38
2018-07-08T09:39:33.537Z,461.25
2018-07-08T09:40:33.514Z,461.25
2018-07-08T09:41:33.498Z,472.50
2018-07-08T09:42:33.477Z,450.00
2018-07-08T09:43:33.452Z,438.75
2018-07-08T09:44:33.433Z,444.38
2018-07-08T09:45:33.410Z,450.00
2018-07-08T09:46:33.400Z,450.00
2018-07-08T09:47:33.361Z,444.38
2018-07-08T09:48:33.353Z,433.13
2018-07-08T09:49:33.337Z,421.88
2018-07-08T09:50:33.325Z,416.25
2018-07-08T09:51:33.301Z,427.50
2018-07-08T09:52:33.348Z,444.38
2018-07-08T09:53:33.253Z,433.13
2018-07-08T09:54:33.233Z,410.63
2018-07-08T09:55:33.259Z,410.63
2018-07-08T09:56:33.206Z,405.00
2018-07-08T09:57:33.231Z,410.63
2018-07-08T09:58:33.161Z,427.50
2018-07-08T09:59:33.144Z,450.00
2018-07-08T10:00:33.151Z,472.50
2018-07-08T10:01:33.101Z,506.25
2018-07-08T10:02:33.085Z,534.38
2018-07-08T10:03:33.066Z,495.00
2018-07-08T10:04:33.061Z,478.13
2018-07-08T10:05:33.030Z,528.75
2018-07-08T10:06:33.007Z,528.75
2018-07-08T10:07:32.985Z,804.38
2018-07-08T10:08:33.001Z,669.38
2018-07-08T10:09:32.955Z,573.75
2018-07-08T10:10:32.933Z,506.25
2018-07-08T10:11:32.911Z,523.13
2018-07-08T10:12:32.904Z,495.00
2018-07-08T10:13:32.875Z,585.00
2018-07-08T10:14:32.856Z,478.13
2018-07-08T10:15:32.832Z,461.25
2018-07-08T10:16:32.816Z,461.25
2018-07-08T10:17:32.815Z,478.13
2018-07-08T10:18:32.781Z,562.50
2018-07-08T10:19:32.786Z,444.38
2018-07-08T10:20:32.738Z,691.88
2018-07-08T10:21:32.795Z,680.63
2018-07-08T10:22:32.706Z,714.38
2018-07-08T10:23:32.690Z,736.88
2018-07-08T10:24:32.688Z,742.50
2018-07-08T10:25:32.685Z,607.50
2018-07-08T10:26:32.630Z,483.75
2018-07-08T10:27:32.609Z,691.88
2018-07-08T10:28:32.612Z,630.00
2018-07-08T10:29:32.578Z,601.88
2018-07-08T10:30:32.560Z,523.13
2018-07-08T10:31:32.537Z,523.13
2018-07-08T10:32:32.526Z,495.00
2018-07-08T10:33:32.510Z,489.38
2018-07-08T10:34:32.488Z,517.50
2018-07-08T10:35:32.468Z,714.38
2018-07-08T10:36:32.500Z,804.38
2018-07-08T10:37:32.437Z,590.63
2018-07-08T10:38:32.409Z,776.25
2018-07-08T10:39:32.395Z,585.00
2018-07-08T10:40:32.384Z,528.75
2018-07-08T10:41:32.377Z,540.00
2018-07-08T10:42:32.347Z,770.63
2018-07-08T10:43:32.320Z,545.63
2018-07-08T10:44:32.309Z,714.38
2018-07-08T10:45:32.287Z,489.38
2018-07-08T10:46:32.273Z,466.88
2018-07-08T10:47:32.258Z,455.63
2018-07-08T10:48:32.254Z,483.75
2018-07-08T10:49:32.230Z,500.63
2018-07-08T10:50:32.195Z,517.50
2018-07-08T10:51:32.186Z,489.38
2018-07-08T10:52:32.168Z,466.88
2018-07-08T10:53:32.145Z,455.63
2018-07-08T10:54:32.152Z,545.63
2018-07-08T10:55:32.109Z,517.50
2018-07-08T10:56:32.104Z,483.75
2018-07-08T10:57:33.993Z,489.38
2018-07-08T10:58:32.071Z,483.75
2018-07-08T10:59:32.033Z,506.25
2018-07-08T11:00:32.027Z,663.75
2018-07-08T11:01:32.004Z,556.88
2018-07-08T11:02:32.011Z,562.50
2018-07-08T11:03:31.978Z,579.38
2018-07-08T11:04:32.438Z,545.63
2018-07-08T11:05:31.965Z,613.13
2018-07-08T11:06:31.932Z,517.50
2018-07-08T11:07:31.887Z,506.25
2018-07-08T11:08:31.877Z,506.25
2018-07-08T11:09:31.881Z,528.75
2018-07-08T11:10:33.530Z,540.00
2018-07-08T11:11:31.895Z,517.50
2018-07-08T11:12:31.805Z,517.50
2018-07-08T11:13:31.797Z,731.25
2018-07-08T11:14:31.812Z,793.13
2018-07-08T11:15:33.504Z,635.63
2018-07-08T11:16:31.748Z,590.63
2018-07-08T11:17:31.737Z,556.88
2018-07-08T11:18:33.513Z,540.00
2018-07-08T11:19:31.740Z,506.25
2018-07-08T11:20:31.675Z,489.38
2018-07-08T11:21:31.641Z,466.88
2018-07-08T11:22:31.624Z,450.00
2018-07-08T11:23:31.605Z,433.13
2018-07-08T11:24:31.588Z,410.63
2018-07-08T11:25:31.575Z,393.75
2018-07-08T11:26:31.552Z,382.50
2018-07-08T11:27:31.533Z,382.50
2018-07-08T11:28:31.540Z,393.75
2018-07-08T11:29:31.488Z,405.00
2018-07-08T11:30:31.481Z,405.00
2018-07-08T11:31:31.461Z,416.25
2018-07-08T11:32:31.443Z,427.50
2018-07-08T11:33:31.425Z,438.75
2018-07-08T11:34:31.413Z,472.50
2018-07-08T11:35:31.390Z,495.00
2018-07-08T11:36:31.368Z,506.25
2018-07-08T11:37:31.350Z,517.50
2018-07-08T11:38:31.330Z,545.63
2018-07-08T11:39:31.316Z,556.88
2018-07-08T11:40:31.296Z,551.25
2018-07-08T11:41:31.285Z,556.88
2018-07-08T11:42:31.267Z,551.25
2018-07-08T11:43:31.244Z,618.75
2018-07-08T11:44:31.224Z,759.38
2018-07-08T11:45:31.206Z,669.38
2018-07-08T11:46:31.187Z,517.50
2018-07-08T11:47:31.169Z,545.63
2018-07-08T11:48:31.154Z,483.75
2018-07-08T11:49:31.137Z,461.25
2018-07-08T11:50:31.115Z,461.25
2018-07-08T11:51:31.100Z,472.50
2018-07-08T11:52:31.086Z,478.13
2018-07-08T11:53:31.071Z,478.13
2018-07-08T11:54:31.044Z,483.75
2018-07-08T11:55:31.166Z,489.38
2018-07-08T11:56:31.015Z,517.50
2018-07-08T11:57:31.001Z,511.88
2018-07-08T11:58:30.977Z,523.13
2018-07-08T11:59:30.969Z,511.88
2018-07-08T12:00:30.945Z,500.63
2018-07-08T12:01:30.927Z,500.63
2018-07-08T12:02:30.909Z,500.63
2018-07-08T12:03:30.892Z,500.63
2018-07-08T12:04:30.872Z,506.25
2018-07-08T12:05:30.855Z,444.38
2018-07-08T12:06:30.926Z,433.13
2018-07-08T12:07:30.822Z,438.75
2018-07-08T12:08:30.805Z,438.75
2018-07-08T12:09:30.785Z,444.38
2018-07-08T12:10:30.765Z,444.38
2018-07-08T12:11:30.747Z,438.75
2018-07-08T12:12:30.732Z,438.75
2018-07-08T12:13:30.716Z,545.63
2018-07-08T12:14:30.759Z,495.00
2018-07-08T12:15:30.678Z,455.63
2018-07-08T12:16:30.666Z,495.00
2018-07-08T12:17:30.642Z,669.38
2018-07-08T12:18:30.631Z,652.50
2018-07-08T12:19:30.606Z,630.00
2018-07-08T12:20:30.595Z,466.88
2018-07-08T12:21:30.573Z,433.13
2018-07-08T12:22:30.565Z,624.38
2018-07-08T12:23:30.542Z,523.13
2018-07-08T12:24:30.541Z,601.88
2018-07-08T12:25:30.503Z,585.00
2018-07-08T12:26:30.496Z,590.63
2018-07-08T12:27:30.495Z,573.75
2018-07-08T12:28:30.455Z,590.63
2018-07-08T12:29:30.435Z,596.25
2018-07-08T12:30:30.418Z,568.13
2018-07-08T12:31:30.397Z,455.63
2018-07-08T12:32:30.386Z,410.63
2018-07-08T12:33:30.363Z,545.63
2018-07-08T12:34:30.351Z,585.00
2018-07-08T12:35:30.336Z,579.38
2018-07-08T12:36:30.313Z,573.75
2018-07-08T12:37:30.294Z,360.00
2018-07-08T12:38:30.276Z,382.50
2018-07-08T12:39:30.261Z,365.63
2018-07-08T12:40:30.246Z,360.00
2018-07-08T12:41:30.224Z,450.00
2018-07-08T12:42:30.211Z,393.75
2018-07-08T12:43:30.187Z,388.13
2018-07-08T12:44:30.261Z,416.25
2018-07-08T12:45:30.158Z,382.50
2018-07-08T12:46:30.135Z,382.50
2018-07-08T12:47:30.133Z,545.63
2018-07-08T12:48:30.099Z,416.25
2018-07-08T12:49:30.083Z,376.88
2018-07-08T12:50:30.069Z,354.38
2018-07-08T12:51:30.058Z,348.75
2018-07-08T12:52:30.031Z,348.75
2018-07-08T12:53:30.029Z,360.00
2018-07-08T12:54:29.995Z,376.88
2018-07-08T12:55:31.509Z,410.63
2018-07-08T12:56:29.955Z,393.75
2018-07-08T12:57:29.955Z,348.75
2018-07-08T12:58:29.920Z,337.50
2018-07-08T12:59:29.904Z,331.88
2018-07-08T13:00:29.883Z,331.88
2018-07-08T13:01:29.881Z,331.88
2018-07-08T13:02:29.852Z,331.88
2018-07-08T13:03:29.828Z,348.75
2018-07-08T13:04:29.865Z,371.25
2018-07-08T13:05:29.802Z,410.63
2018-07-08T13:06:29.789Z,455.63